Summary for MDHALE1

Southwest Baltimore Co., Halethorpe, MD 21227
Join the PWSweather.com Network
View data in metric units
Latest Conditions
Updated 11:45:02 AM EST Friday, Feb 27, 2015
Data Currently Today's Max Today's Min Today's Average
Temperature 29.0°F-1.7°C 29.4°F-1.4°C 27.2°F-2.7°C 28.3°F-2.1°C
Dew Point 14.0°F-10.0°C 22.3°F-5.4°C 13.8°F-10.1°C 20.1°F-6.6°C
Winds 6.9 mph N11.1 kmh N 8.1 mph NW13.0 kmh NW CalmCalm 1.7 mph2.7 kmh
Wind Gusts 12.7 mph20.4 kmh 12.7 mph20.4 kmh -- 2.6 mph4.2 kmh
Humidity 53% 78% 53% 71%
Pressure 30.43 in1030.5 mb 30.43 in1030.5 mb 30.14 in1020.7 mb 30.28 in1025.4 mb
Precipitation 0.01 in0.3 mm - - 0.02 in0.5 mm
Trends
 
Station Profile
Southwest Baltimore Co.Halethorpe, MD 21227

Lat: 39.236, Lon: -76.697
Elevation: 86
Station Type: Davis Vantage Pro2+

http://home.comcast.net/~halethorpe_weather/index.html

Detailed Summary for Fri, Feb 27, 2015
Hour (EST) Temperature Dew Point Humidity Winds Wind Gusts Pressure Precip Precip Rate Daily Precip Total
11:45 AM 29.0°F-1.7°C 14.0°F-10.0°C 53% 6.9 mph N11.1 kmh N 12.7 mph20.4 kmh 30.43 in1030.5 mb 0.00 in0.0 mm 0.00 in/hr0.0 mm/hr 0.01 in0.3 mm
11:30 AM 28.8°F-1.8°C 13.8°F-10.1°C 53% 8.1 mph NW13.0 kmh NW 8.1 mph13.0 kmh 30.43 in1030.5 mb 0.00 in0.0 mm 0.00 in/hr0.0 mm/hr 0.01 in0.3 mm
11:15 AM 29.4°F-1.4°C 15.2°F-9.3°C 55% 3.5 mph NW5.6 kmh NW 4.6 mph7.4 kmh 30.42 in1030.1 mb 0.00 in0.0 mm 0.00 in/hr0.0 mm/hr 0.01 in0.3 mm
11:00 AM 28.4°F-2.0°C 15.1°F-9.4°C 57% 2.3 mph N3.7 kmh N 3.5 mph5.6 kmh 30.42 in1030.1 mb 0.00 in0.0 mm 0.00 in/hr0.0 mm/hr 0.01 in0.3 mm
10:45 AM 28.0°F-2.2°C 15.5°F-9.2°C 59% 3.5 mph NNW5.6 kmh NNW 5.8 mph9.3 kmh 30.42 in1030.1 mb 0.00 in0.0 mm 0.00 in/hr0.0 mm/hr 0.01 in0.3 mm
10:30 AM 27.8°F-2.3°C 15.7°F-9.1°C 60% 4.6 mph NNW7.4 kmh NNW 4.6 mph7.4 kmh 30.42 in1030.1 mb 0.00 in0.0 mm 0.00 in/hr0.0 mm/hr 0.01 in0.3 mm
10:15 AM 27.2°F-2.7°C 16.6°F-8.6°C 64% 3.5 mph N5.6 kmh N 4.6 mph7.4 kmh 30.41 in1029.8 mb 0.00 in0.0 mm 0.00 in/hr0.0 mm/hr 0.01 in0.3 mm
10:00 AM 27.6°F-2.4°C 17.3°F-8.2°C 65% 6.9 mph NNW11.1 kmh NNW 12.7 mph20.4 kmh 30.41 in1029.8 mb 0.00 in0.0 mm 0.00 in/hr0.0 mm/hr 0.01 in0.3 mm
09:45 AM 27.6°F-2.4°C 17.7°F-7.9°C 66% 5.8 mph NNW9.3 kmh NNW 8.1 mph13.0 kmh 30.41 in1029.8 mb 0.00 in0.0 mm 0.00 in/hr0.0 mm/hr 0.01 in0.3 mm
09:30 AM 27.3°F-2.6°C 17.4°F-8.1°C 66% 2.3 mph NNW3.7 kmh NNW 5.8 mph9.3 kmh 30.40 in1029.5 mb 0.01 in0.3 mm 0.04 in/hr1.0 mm/hr 0.01 in0.3 mm
09:15 AM 27.6°F-2.4°C 17.7°F-7.9°C 66% 3.5 mph NNW5.6 kmh NNW 5.8 mph9.3 kmh 30.39 in1029.1 mb 0.01 in0.3 mm 0.04 in/hr1.0 mm/hr 0.01 in0.3 mm
09:00 AM 28.0°F-2.2°C 18.1°F-7.7°C 66% 4.6 mph NNW7.4 kmh NNW 6.9 mph11.1 kmh 30.39 in1029.1 mb 0.00 in0.0 mm 0.00 in/hr0.0 mm/hr 0.00 in0.0 mm
08:45 AM 28.5°F-1.9°C 18.9°F-7.3°C 67% 2.3 mph N3.7 kmh N 3.5 mph5.6 kmh 30.38 in1028.8 mb 0.00 in0.0 mm 0.00 in/hr0.0 mm/hr 0.00 in0.0 mm
08:30 AM 28.4°F-2.0°C 19.2°F-7.1°C 68% 1.2 mph N1.9 kmh N 2.3 mph3.7 kmh 30.38 in1028.8 mb 0.00 in0.0 mm 0.00 in/hr0.0 mm/hr 0.00 in0.0 mm
08:15 AM 28.4°F-2.0°C 19.2°F-7.1°C 68% 4.6 mph N7.4 kmh N 9.2 mph14.8 kmh 30.36 in1028.1 mb 0.00 in0.0 mm 0.00 in/hr0.0 mm/hr 0.00 in0.0 mm
08:00 AM 28.4°F-2.0°C 19.6°F-6.9°C 69% 4.6 mph N7.4 kmh N 8.1 mph13.0 kmh 30.36 in1028.1 mb 0.00 in0.0 mm 0.00 in/hr0.0 mm/hr 0.00 in0.0 mm
07:45 AM 28.2°F-2.1°C 19.7°F-6.8°C 70% 3.5 mph N5.6 kmh N 5.8 mph9.3 kmh 30.34 in1027.4 mb 0.00 in0.0 mm 0.00 in/hr0.0 mm/hr 0.00 in0.0 mm
07:30 AM 28.1°F-2.2°C 19.9°F-6.7°C 71% 4.6 mph N7.4 kmh N 5.8 mph9.3 kmh 30.33 in1027.1 mb 0.00 in0.0 mm 0.00 in/hr0.0 mm/hr 0.00 in0.0 mm
07:15 AM 28.1°F-2.2°C 20.6°F-6.3°C 73% Calm Calm -- 30.32 in1026.8 mb 0.00 in0.0 mm 0.00 in/hr0.0 mm/hr 0.00 in0.0 mm
07:00 AM 28.2°F-2.1°C 21.0°F-6.1°C 74% 2.3 mph NNE3.7 kmh NNE 2.3 mph3.7 kmh 30.30 in1026.1 mb 0.00 in0.0 mm 0.00 in/hr0.0 mm/hr 0.00 in0.0 mm
06:45 AM 28.3°F-2.1°C 21.7°F-5.7°C 76% 3.5 mph NNE5.6 kmh NNE 3.5 mph5.6 kmh 30.29 in1025.7 mb 0.00 in0.0 mm 0.00 in/hr0.0 mm/hr 0.00 in0.0 mm
06:30 AM 28.5°F-1.9°C 21.6°F-5.8°C 75% Calm Calm -- 30.29 in1025.7 mb 0.00 in0.0 mm 0.00 in/hr0.0 mm/hr 0.00 in0.0 mm
06:15 AM 28.7°F-1.8°C 22.1°F-5.5°C 76% Calm Calm -- 30.27 in1025.1 mb 0.00 in0.0 mm 0.00 in/hr0.0 mm/hr 0.00 in0.0 mm
06:00 AM 28.7°F-1.8°C 22.1°F-5.5°C 76% Calm Calm -- 30.27 in1025.1 mb 0.00 in0.0 mm 0.00 in/hr0.0 mm/hr 0.00 in0.0 mm
05:45 AM 28.5°F-1.9°C 21.9°F-5.6°C 76% Calm Calm -- 30.26 in1024.7 mb 0.00 in0.0 mm 0.00 in/hr0.0 mm/hr 0.00 in0.0 mm
05:30 AM 28.3°F-2.1°C 21.7°F-5.7°C 76% Calm Calm -- 30.25 in1024.4 mb 0.00 in0.0 mm 0.00 in/hr0.0 mm/hr 0.00 in0.0 mm
05:15 AM 28.3°F-2.1°C 21.4°F-5.9°C 75% Calm Calm -- 30.25 in1024.4 mb 0.00 in0.0 mm 0.00 in/hr0.0 mm/hr 0.00 in0.0 mm
05:00 AM 28.2°F-2.1°C 21.6°F-5.8°C 76% Calm Calm -- 30.24 in1024.0 mb 0.00 in0.0 mm 0.00 in/hr0.0 mm/hr 0.00 in0.0 mm
04:45 AM 28.1°F-2.2°C 21.8°F-5.7°C 77% Calm Calm -- 30.23 in1023.7 mb 0.00 in0.0 mm 0.00 in/hr0.0 mm/hr 0.00 in0.0 mm
04:30 AM 28.1°F-2.2°C 21.8°F-5.7°C 77% Calm Calm -- 30.22 in1023.4 mb 0.00 in0.0 mm 0.00 in/hr0.0 mm/hr 0.00 in0.0 mm
04:15 AM 28.1°F-2.2°C 21.8°F-5.7°C 77% Calm Calm -- 30.22 in1023.4 mb 0.00 in0.0 mm 0.00 in/hr0.0 mm/hr 0.00 in0.0 mm
04:00 AM 28.2°F-2.1°C 21.9°F-5.6°C 77% Calm Calm -- 30.21 in1023.0 mb 0.00 in0.0 mm 0.00 in/hr0.0 mm/hr 0.00 in0.0 mm
03:45 AM 28.3°F-2.1°C 22.0°F-5.6°C 77% Calm Calm -- 30.21 in1023.0 mb 0.00 in0.0 mm 0.00 in/hr0.0 mm/hr 0.00 in0.0 mm
03:30 AM 28.3°F-2.1°C 22.0°F-5.6°C 77% Calm Calm -- 30.21 in1023.0 mb 0.00 in0.0 mm 0.00 in/hr0.0 mm/hr 0.00 in0.0 mm
03:15 AM 28.3°F-2.1°C 22.3°F-5.4°C 78% Calm Calm -- 30.20 in1022.7 mb 0.00 in0.0 mm 0.00 in/hr0.0 mm/hr 0.00 in0.0 mm
03:00 AM 28.3°F-2.1°C 22.3°F-5.4°C 78% Calm Calm -- 30.19 in1022.4 mb 0.00 in0.0 mm 0.00 in/hr0.0 mm/hr 0.00 in0.0 mm
02:45 AM 28.2°F-2.1°C 22.2°F-5.4°C 78% Calm Calm -- 30.19 in1022.4 mb 0.00 in0.0 mm 0.00 in/hr0.0 mm/hr 0.00 in0.0 mm
02:30 AM 28.2°F-2.1°C 22.2°F-5.4°C 78% Calm Calm -- 30.19 in1022.4 mb 0.00 in0.0 mm 0.00 in/hr0.0 mm/hr 0.00 in0.0 mm
02:15 AM 28.1°F-2.2°C 21.8°F-5.7°C 77% Calm Calm -- 30.19 in1022.4 mb 0.00 in0.0 mm 0.00 in/hr0.0 mm/hr 0.00 in0.0 mm
02:00 AM 28.0°F-2.2°C 21.7°F-5.7°C 77% Calm Calm -- 30.19 in1022.4 mb 0.00 in0.0 mm 0.00 in/hr0.0 mm/hr 0.00 in0.0 mm
01:45 AM 28.0°F-2.2°C 21.4°F-5.9°C 76% Calm Calm -- 30.18 in1022.0 mb 0.00 in0.0 mm 0.00 in/hr0.0 mm/hr 0.00 in0.0 mm
01:30 AM 28.2°F-2.1°C 21.6°F-5.8°C 76% Calm Calm -- 30.18 in1022.0 mb 0.00 in0.0 mm 0.00 in/hr0.0 mm/hr 0.00 in0.0 mm
01:15 AM 28.3°F-2.1°C 21.7°F-5.7°C 76% Calm Calm -- 30.17 in1021.7 mb 0.00 in0.0 mm 0.00 in/hr0.0 mm/hr 0.00 in0.0 mm
01:00 AM 28.6°F-1.9°C 21.7°F-5.7°C 75% Calm Calm -- 30.16 in1021.3 mb 0.00 in0.0 mm 0.00 in/hr0.0 mm/hr 0.00 in0.0 mm
12:45 AM 28.9°F-1.7°C 22.0°F-5.6°C 75% Calm Calm -- 30.16 in1021.3 mb 0.00 in0.0 mm 0.00 in/hr0.0 mm/hr 0.00 in0.0 mm
12:30 AM 29.0°F-1.7°C 22.1°F-5.5°C 75% Calm Calm -- 30.16 in1021.3 mb 0.00 in0.0 mm 0.00 in/hr0.0 mm/hr 0.00 in0.0 mm
12:15 AM 29.0°F-1.7°C 22.1°F-5.5°C 75% Calm Calm -- 30.15 in1021.0 mb 0.00 in0.0 mm 0.00 in/hr0.0 mm/hr 0.00 in0.0 mm
12:01 AM 29.0°F-1.7°C 22.1°F-5.5°C 75% Calm Calm -- 30.14 in1020.7 mb 0.00 in0.0 mm 0.00 in/hr0.0 mm/hr 0.00 in0.0 mm
WeatherForYou.com, LLC is not responsible for any damages or problems caused by this service. Current weather conditions are obtained from the closest station including government and personal stations which may have varying degrees of accuracy. Weather forecasts are derived from the NOAA NDFD and obtained through HAMweather's Aeris Weather API. Like all things, this site belongs to Jesus Christ... He just trusts me to maintain it. If you have any questions or comments email webmaster@weatherforyou.com

Copyright © 2015, WeatherForYou.com LLC. All rights reserved.